createdAt,value
2019-05-22T00:00:02.518Z,12.13
2019-05-22T00:01:02.483Z,12.20
2019-05-22T00:02:02.493Z,12.13
2019-05-22T00:03:02.902Z,12.12
2019-05-22T00:04:02.358Z,12.13
2019-05-22T00:05:02.412Z,12.09
2019-05-22T00:06:02.267Z,12.13
2019-05-22T00:07:02.231Z,12.10
2019-05-22T00:08:02.218Z,12.16
2019-05-22T00:09:02.157Z,12.13
2019-05-22T00:10:02.117Z,12.12
2019-05-22T00:11:02.110Z,12.07
2019-05-22T00:12:02.050Z,12.12
2019-05-22T00:13:01.998Z,12.04
2019-05-22T00:14:01.940Z,12.09
2019-05-22T00:15:02.921Z,12.16
2019-05-22T00:16:01.871Z,12.14
2019-05-22T00:17:01.852Z,12.13
2019-05-22T00:18:01.782Z,12.17
2019-05-22T00:19:01.763Z,12.13
2019-05-22T00:20:01.696Z,12.13
2019-05-22T00:21:01.677Z,12.12
2019-05-22T00:22:01.616Z,12.16
2019-05-22T00:23:01.577Z,12.12
2019-05-22T00:24:01.529Z,12.12
2019-05-22T00:25:01.489Z,12.05
2019-05-22T00:26:01.450Z,12.14
2019-05-22T00:27:01.432Z,12.07
2019-05-22T00:28:01.370Z,12.12
2019-05-22T00:29:01.327Z,12.01
2019-05-22T00:30:01.306Z,12.02
2019-05-22T00:31:01.244Z,12.07
2019-05-22T00:32:01.226Z,12.07
2019-05-22T00:33:01.156Z,12.05
2019-05-22T00:34:01.119Z,12.02
2019-05-22T00:35:01.075Z,12.04
2019-05-22T00:36:01.041Z,12.05
2019-05-22T00:37:00.995Z,12.02
2019-05-22T00:38:00.980Z,12.05
2019-05-22T00:39:00.932Z,11.99
2019-05-22T00:40:00.871Z,11.98
2019-05-22T00:41:00.831Z,12.01
2019-05-22T00:42:00.799Z,12.04
2019-05-22T00:43:05.497Z,12.02
2019-05-22T00:44:00.746Z,11.99
2019-05-22T00:45:00.695Z,12.09
2019-05-22T00:46:00.617Z,12.02
2019-05-22T00:47:00.590Z,11.98
2019-05-22T00:48:00.544Z,11.91
2019-05-22T00:49:00.501Z,12.04
2019-05-22T00:50:00.483Z,12.01
2019-05-22T00:51:00.422Z,12.01
2019-05-22T00:52:00.368Z,11.98
2019-05-22T00:53:00.331Z,12.07
2019-05-22T00:54:00.298Z,12.09
2019-05-22T00:55:00.290Z,12.01
2019-05-22T00:56:00.211Z,11.98
2019-05-22T00:57:00.164Z,11.96
2019-05-22T00:58:00.129Z,12.02
2019-05-22T00:59:00.085Z,12.09
2019-05-22T01:00:00.048Z,12.01
2019-05-22T01:01:00.030Z,12.05
2019-05-22T01:01:59.986Z,12.05
2019-05-22T01:02:59.924Z,12.07
2019-05-22T01:03:59.877Z,12.02
2019-05-22T01:04:59.836Z,11.91
2019-05-22T01:05:59.793Z,11.98
2019-05-22T01:06:59.781Z,11.88
2019-05-22T01:07:59.718Z,11.91
2019-05-22T01:08:59.687Z,11.88
2019-05-22T01:09:59.630Z,12.01
2019-05-22T01:10:59.586Z,11.98
2019-05-22T01:11:59.553Z,12.01
2019-05-22T01:12:59.536Z,12.02
2019-05-22T01:13:59.467Z,12.01
2019-05-22T01:14:59.428Z,12.01
2019-05-22T01:15:59.376Z,12.09
2019-05-22T01:16:59.346Z,12.07
2019-05-22T01:17:59.296Z,12.02
2019-05-22T01:18:59.284Z,12.05
2019-05-22T01:19:59.225Z,11.98
2019-05-22T01:20:59.176Z,12.04
2019-05-22T01:21:59.136Z,12.05
2019-05-22T01:22:59.099Z,12.07
2019-05-22T01:23:59.050Z,11.94
2019-05-22T01:24:59.031Z,11.94
2019-05-22T01:25:58.973Z,11.85
2019-05-22T01:26:58.935Z,11.83
2019-05-22T01:27:58.885Z,11.91
2019-05-22T01:28:58.867Z,11.90
2019-05-22T01:29:58.821Z,11.98
2019-05-22T01:30:58.757Z,11.86
2019-05-22T01:31:58.730Z,12.01
2019-05-22T01:32:58.682Z,12.05
2019-05-22T01:33:58.639Z,12.01
2019-05-22T01:34:58.627Z,11.99
2019-05-22T01:35:58.567Z,11.99
2019-05-22T01:36:58.508Z,12.02
2019-05-22T01:37:58.471Z,12.01
2019-05-22T01:38:58.456Z,11.96
2019-05-22T01:39:58.393Z,11.88
2019-05-22T01:40:58.352Z,11.95
2019-05-22T01:41:58.300Z,11.95
2019-05-22T01:42:58.264Z,11.96
2019-05-22T01:43:58.227Z,12.05
2019-05-22T01:45:05.838Z,11.95
2019-05-22T01:45:58.146Z,11.99
2019-05-22T01:46:58.106Z,11.95
2019-05-22T01:47:58.053Z,11.95
2019-05-22T01:48:58.012Z,11.94
2019-05-22T01:49:57.977Z,11.94
2019-05-22T01:50:57.979Z,12.01
2019-05-22T01:51:57.895Z,12.01
2019-05-22T01:52:57.850Z,11.91
2019-05-22T01:53:57.817Z,11.86
2019-05-22T01:54:57.773Z,11.95
2019-05-22T01:55:57.747Z,11.90
2019-05-22T01:56:57.686Z,11.88
2019-05-22T01:57:57.648Z,11.73
2019-05-22T01:58:57.644Z,11.73
2019-05-22T01:59:57.565Z,11.83
2019-05-22T02:00:57.541Z,11.75
2019-05-22T02:01:57.477Z,11.73
2019-05-22T02:02:57.438Z,11.72
2019-05-22T02:03:57.430Z,11.82
2019-05-22T02:04:57.398Z,11.78
2019-05-22T02:05:57.340Z,11.79
2019-05-22T02:06:57.277Z,11.79
2019-05-22T02:07:57.233Z,11.79
2019-05-22T02:08:57.218Z,11.78
2019-05-22T02:09:57.161Z,11.78
2019-05-22T02:10:57.101Z,11.78
2019-05-22T02:11:57.088Z,11.75
2019-05-22T02:12:57.055Z,11.73
2019-05-22T02:13:56.981Z,11.78
2019-05-22T02:14:56.939Z,11.69
2019-05-22T02:15:56.905Z,11.73
2019-05-22T02:16:57.520Z,11.75
2019-05-22T02:17:56.847Z,11.80
2019-05-22T02:18:56.781Z,11.79
2019-05-22T02:19:56.745Z,11.60
2019-05-22T02:20:56.690Z,11.69
2019-05-22T02:21:56.651Z,11.70
2019-05-22T02:22:56.604Z,11.70
2019-05-22T02:23:56.600Z,11.62
2019-05-22T02:25:05.048Z,11.64
2019-05-22T02:25:56.490Z,11.55
2019-05-22T02:26:56.449Z,11.55
2019-05-22T02:27:56.408Z,11.54
2019-05-22T02:29:05.085Z,11.55
2019-05-22T02:29:56.317Z,11.52
2019-05-22T02:30:56.366Z,11.58
2019-05-22T02:31:56.242Z,11.60
2019-05-22T02:32:56.197Z,11.57
2019-05-22T02:33:56.161Z,11.58
2019-05-22T02:34:56.119Z,11.46
2019-05-22T02:36:05.609Z,11.52
2019-05-22T02:36:56.021Z,11.58
2019-05-22T02:37:55.993Z,11.58
2019-05-22T02:38:55.949Z,11.60
2019-05-22T02:39:55.904Z,11.60
2019-05-22T02:40:55.863Z,11.55
2019-05-22T02:41:55.850Z,11.51
2019-05-22T02:42:55.808Z,11.49
2019-05-22T02:43:55.761Z,11.47
2019-05-22T02:44:55.710Z,11.43
2019-05-22T02:45:55.680Z,11.42
2019-05-22T02:46:55.609Z,11.40
2019-05-22T02:47:55.572Z,11.46
2019-05-22T02:48:55.526Z,11.40
2019-05-22T02:49:55.491Z,11.44
2019-05-22T02:50:55.455Z,11.44
2019-05-22T02:51:55.437Z,11.39
2019-05-22T02:52:55.364Z,11.43
2019-05-22T02:53:55.324Z,11.37
2019-05-22T02:54:55.298Z,11.39
2019-05-22T02:55:55.244Z,11.37
2019-05-22T02:56:55.199Z,11.39
2019-05-22T02:57:55.175Z,11.43
2019-05-22T02:59:04.656Z,11.37
2019-05-22T03:00:04.209Z,11.40
2019-05-22T03:01:04.216Z,11.42
2019-05-22T03:02:04.247Z,11.32
2019-05-22T03:03:04.285Z,11.27
2019-05-22T03:04:04.332Z,11.36
2019-05-22T03:05:03.890Z,11.32
2019-05-22T03:06:03.919Z,11.28
2019-05-22T03:07:03.946Z,11.24
2019-05-22T03:08:03.506Z,11.28
2019-05-22T03:09:04.011Z,11.27
2019-05-22T03:10:03.596Z,11.28
2019-05-22T03:11:04.098Z,11.27
2019-05-22T03:12:03.625Z,11.25
2019-05-22T03:13:03.659Z,11.21
2019-05-22T03:13:54.482Z,11.18
2019-05-22T03:14:54.461Z,11.24
2019-05-22T03:17:33.704Z,11.21
2019-05-22T03:18:33.603Z,11.22
2019-05-22T03:19:33.560Z,11.10
2019-05-22T03:20:33.544Z,11.07
2019-05-22T03:21:33.503Z,11.04
2019-05-22T03:22:33.445Z,11.10
2019-05-22T03:23:33.390Z,11.07
2019-05-22T03:24:33.377Z,11.04
2019-05-22T03:25:33.434Z,11.06
2019-05-22T03:26:33.263Z,11.14
2019-05-22T03:27:33.248Z,11.00
2019-05-22T03:28:43.369Z,10.97
2019-05-22T03:29:42.404Z,11.00
2019-05-22T03:30:33.102Z,11.04
2019-05-22T03:31:33.055Z,11.06
2019-05-22T03:32:33.015Z,11.02
2019-05-22T03:33:32.996Z,11.06
2019-05-22T03:34:32.936Z,11.07
2019-05-22T03:35:32.913Z,11.04
2019-05-22T03:36:32.848Z,11.06
2019-05-22T03:37:32.841Z,11.04
2019-05-22T03:38:32.879Z,11.04
2019-05-22T03:39:32.747Z,11.10
2019-05-22T03:40:32.682Z,11.09
2019-05-22T03:41:32.629Z,11.07
2019-05-22T03:42:32.588Z,11.06
2019-05-22T03:43:32.549Z,11.09
2019-05-22T03:44:32.532Z,11.09
2019-05-22T03:45:32.484Z,11.07
2019-05-22T03:46:32.433Z,11.07
2019-05-22T03:47:32.383Z,11.04
2019-05-22T03:48:32.343Z,11.09
2019-05-22T03:49:32.340Z,11.10
2019-05-22T03:50:32.264Z,11.10
2019-05-22T03:51:32.220Z,11.09
2019-05-22T03:52:32.178Z,11.06
2019-05-22T03:53:32.134Z,11.06
2019-05-22T03:54:32.115Z,11.09
2019-05-22T03:55:32.047Z,11.10
2019-05-22T03:56:32.004Z,11.09
2019-05-22T03:57:31.967Z,11.06
2019-05-22T03:58:31.927Z,11.14
2019-05-22T03:59:31.975Z,11.09
2019-05-22T04:00:31.854Z,11.07
2019-05-22T04:01:31.803Z,11.06
2019-05-22T04:02:31.752Z,11.19
2019-05-22T04:03:31.725Z,11.15
2019-05-22T04:04:31.684Z,11.14
2019-05-22T04:05:31.657Z,11.15
2019-05-22T04:06:31.590Z,11.17
2019-05-22T04:07:31.547Z,11.10
2019-05-22T04:08:31.509Z,11.14
2019-05-22T04:09:31.475Z,11.14
2019-05-22T04:10:31.457Z,11.07
2019-05-22T04:11:31.424Z,11.18
2019-05-22T04:12:31.347Z,11.10
2019-05-22T04:13:31.300Z,11.11
2019-05-22T04:14:31.257Z,11.25
2019-05-22T04:15:31.239Z,11.19
2019-05-22T04:16:31.176Z,11.15
2019-05-22T04:17:31.136Z,11.17
2019-05-22T04:18:31.097Z,11.22
2019-05-22T04:19:47.328Z,11.24
2019-05-22T04:20:31.037Z,11.24
2019-05-22T04:21:30.972Z,11.22
2019-05-22T04:22:30.931Z,11.18
2019-05-22T04:23:30.890Z,11.24
2019-05-22T04:24:30.847Z,11.22
2019-05-22T04:25:30.857Z,11.24
2019-05-22T04:26:30.788Z,11.11
2019-05-22T04:27:30.719Z,11.19
2019-05-22T04:28:30.704Z,11.19
2019-05-22T04:29:30.639Z,11.25
2019-05-22T04:30:30.605Z,11.22
2019-05-22T04:31:30.559Z,11.21
2019-05-22T04:32:30.520Z,11.18
2019-05-22T04:33:30.471Z,11.21
2019-05-22T04:34:30.524Z,11.24
2019-05-22T04:35:30.393Z,11.27
2019-05-22T04:36:30.350Z,11.32
2019-05-22T04:37:30.301Z,11.27
2019-05-22T04:38:30.283Z,11.37
2019-05-22T04:39:30.223Z,11.33
2019-05-22T04:40:30.203Z,11.24
2019-05-22T04:41:30.142Z,11.22
2019-05-22T04:42:30.106Z,11.27
2019-05-22T04:43:30.063Z,11.19
2019-05-22T04:44:30.028Z,11.29
2019-05-22T04:45:29.999Z,11.27
2019-05-22T04:46:29.938Z,11.17
2019-05-22T04:47:29.887Z,11.10
2019-05-22T04:48:29.851Z,11.17
2019-05-22T04:49:29.812Z,11.19
2019-05-22T04:50:29.783Z,11.21
2019-05-22T04:51:29.762Z,11.22
2019-05-22T04:52:29.686Z,11.25
2019-05-22T04:53:29.673Z,11.24
2019-05-22T04:54:29.609Z,11.25
2019-05-22T04:55:29.562Z,11.21
2019-05-22T04:56:29.551Z,11.22
2019-05-22T04:57:29.474Z,11.21
2019-05-22T04:58:29.432Z,11.07
2019-05-22T04:59:29.390Z,11.25
2019-05-22T05:00:29.350Z,11.14
2019-05-22T05:01:29.314Z,11.11
2019-05-22T05:02:29.302Z,11.17
2019-05-22T05:03:29.251Z,11.10
2019-05-22T05:04:29.194Z,11.17
2019-05-22T05:05:29.144Z,11.19
2019-05-22T05:06:29.103Z,11.14
2019-05-22T05:07:29.064Z,11.21
2019-05-22T05:08:29.051Z,11.19
2019-05-22T05:09:28.981Z,11.21
2019-05-22T05:10:28.941Z,11.19
2019-05-22T05:11:28.899Z,11.24
2019-05-22T05:12:28.853Z,11.18
2019-05-22T05:13:28.863Z,11.19
2019-05-22T05:14:28.781Z,11.25
2019-05-22T05:15:28.769Z,11.29
2019-05-22T05:16:28.698Z,11.33
2019-05-22T05:17:28.645Z,11.36
2019-05-22T05:18:28.607Z,11.35
2019-05-22T05:19:28.591Z,11.35
2019-05-22T05:20:28.526Z,11.29
2019-05-22T05:21:28.488Z,11.36
2019-05-22T05:22:28.445Z,11.29
2019-05-22T05:23:28.411Z,11.29
2019-05-22T05:24:28.386Z,11.36
2019-05-22T05:25:28.321Z,11.35
2019-05-22T05:26:28.287Z,11.40
2019-05-22T05:27:28.243Z,11.36
2019-05-22T05:28:28.207Z,11.37
2019-05-22T05:29:28.182Z,11.35
2019-05-22T05:30:28.138Z,11.44
2019-05-22T05:31:28.068Z,11.49
2019-05-22T05:32:28.025Z,11.40
2019-05-22T05:33:27.995Z,11.47
2019-05-22T05:34:27.957Z,11.51
2019-05-22T05:35:27.934Z,11.52
2019-05-22T05:36:27.875Z,11.57
2019-05-22T05:37:27.817Z,11.55
2019-05-22T05:38:27.797Z,11.58
2019-05-22T05:39:27.747Z,11.58
2019-05-22T05:40:27.782Z,11.72
2019-05-22T05:41:27.682Z,11.61
2019-05-22T05:42:27.611Z,11.64
2019-05-22T05:43:27.624Z,11.70
2019-05-22T05:44:27.531Z,11.60
2019-05-22T05:45:27.507Z,11.57
2019-05-22T05:46:27.485Z,11.58
2019-05-22T05:47:27.421Z,11.58
2019-05-22T05:48:27.377Z,11.61
2019-05-22T05:49:27.327Z,11.58
2019-05-22T05:50:38.867Z,11.61
2019-05-22T05:51:27.241Z,11.67
2019-05-22T05:52:27.230Z,11.86
2019-05-22T05:53:27.169Z,11.86
2019-05-22T05:54:30.215Z,12.02
2019-05-22T05:55:27.081Z,12.12
2019-05-22T05:56:27.039Z,12.19
2019-05-22T05:57:27.027Z,12.29
2019-05-22T05:58:27.033Z,12.39
2019-05-22T05:59:26.920Z,12.54
2019-05-22T06:00:26.882Z,12.67
2019-05-22T06:01:26.832Z,12.79
2019-05-22T06:02:26.821Z,12.87
2019-05-22T06:03:26.758Z,12.87
2019-05-22T06:04:34.582Z,12.85
2019-05-22T06:05:26.676Z,12.75
2019-05-22T06:06:26.677Z,12.74
2019-05-22T06:07:26.595Z,12.54
2019-05-22T06:08:26.577Z,12.71
2019-05-22T06:09:26.509Z,12.74
2019-05-22T06:10:26.463Z,12.75
2019-05-22T06:11:26.490Z,12.83
2019-05-22T06:12:26.416Z,12.89
2019-05-22T06:13:26.415Z,12.87
2019-05-22T06:14:26.399Z,12.85
2019-05-22T06:15:26.283Z,12.96
2019-05-22T06:16:26.223Z,12.96
2019-05-22T06:17:26.270Z,12.87
2019-05-22T06:18:26.229Z,12.90
2019-05-22T06:19:26.101Z,12.93
2019-05-22T06:20:26.069Z,13.00
2019-05-22T06:21:26.033Z,12.89
2019-05-22T06:22:25.975Z,12.87
2019-05-22T06:23:25.969Z,12.89
2019-05-22T06:24:25.900Z,12.82
2019-05-22T06:25:25.885Z,12.87
2019-05-22T06:26:25.861Z,12.87
2019-05-22T06:27:25.775Z,12.90
2019-05-22T06:28:25.729Z,12.87
2019-05-22T06:29:28.079Z,12.75
2019-05-22T06:30:25.655Z,12.53
2019-05-22T06:31:25.687Z,12.42
2019-05-22T06:32:25.579Z,12.41
2019-05-22T06:33:25.527Z,12.52
2019-05-22T06:34:25.487Z,12.62
2019-05-22T06:35:25.444Z,12.62
2019-05-22T06:36:25.406Z,12.68
2019-05-22T06:37:25.418Z,12.71
2019-05-22T06:38:25.345Z,12.74
2019-05-22T06:39:25.306Z,12.85
2019-05-22T06:40:25.250Z,12.77
2019-05-22T06:41:25.199Z,12.54
2019-05-22T06:42:25.198Z,12.56
2019-05-22T06:43:25.125Z,12.67
2019-05-22T06:44:25.128Z,12.65
2019-05-22T06:45:25.036Z,12.70
2019-05-22T06:46:24.995Z,12.62
2019-05-22T06:47:24.955Z,12.70
2019-05-22T06:48:24.937Z,12.85
2019-05-22T06:49:24.882Z,12.96
2019-05-22T06:50:25.041Z,13.11
2019-05-22T06:51:24.810Z,13.04
2019-05-22T06:52:24.999Z,13.15
2019-05-22T06:53:24.717Z,13.05
2019-05-22T06:54:24.762Z,13.04
2019-05-22T06:55:24.772Z,13.01
2019-05-22T06:56:24.598Z,12.96
2019-05-22T06:57:24.584Z,12.82
2019-05-22T06:58:24.614Z,12.86
2019-05-22T06:59:24.507Z,12.96
2019-05-22T07:00:24.442Z,12.92
2019-05-22T07:01:24.387Z,13.07
2019-05-22T07:02:24.354Z,13.12
2019-05-22T07:03:24.339Z,12.90
2019-05-22T07:04:24.268Z,13.08
2019-05-22T07:05:24.233Z,13.01
2019-05-22T07:06:24.185Z,13.07
2019-05-22T07:07:24.158Z,13.04
2019-05-22T07:08:24.130Z,12.93
2019-05-22T07:09:24.071Z,13.05
2019-05-22T07:10:24.024Z,13.08
2019-05-22T07:11:23.986Z,13.08
2019-05-22T07:12:23.947Z,13.11
2019-05-22T07:13:23.931Z,13.11
2019-05-22T07:14:23.909Z,13.29
2019-05-22T07:15:23.823Z,13.36
2019-05-22T07:16:23.784Z,13.42
2019-05-22T07:17:23.741Z,13.42
2019-05-22T07:18:23.701Z,13.49
2019-05-22T07:19:23.683Z,13.54
2019-05-22T07:20:23.640Z,13.57
2019-05-22T07:21:33.635Z,13.70
2019-05-22T07:22:23.555Z,13.73
2019-05-22T07:23:23.682Z,13.70
2019-05-22T07:24:23.489Z,13.67
2019-05-22T07:25:23.416Z,13.81
2019-05-22T07:26:23.376Z,13.97
2019-05-22T07:27:23.335Z,14.07
2019-05-22T07:28:23.298Z,14.02
2019-05-22T07:29:23.288Z,14.02
2019-05-22T07:30:23.223Z,13.88
2019-05-22T07:31:23.185Z,13.95
2019-05-22T07:32:23.142Z,14.09
2019-05-22T07:33:23.128Z,13.96
2019-05-22T07:34:23.063Z,14.03
2019-05-22T07:35:23.063Z,14.06
2019-05-22T07:36:23.028Z,13.92
2019-05-22T07:37:22.940Z,13.64
2019-05-22T07:38:22.924Z,13.77
2019-05-22T07:39:22.881Z,13.96
2019-05-22T07:40:22.824Z,13.97
2019-05-22T07:41:22.788Z,13.96
2019-05-22T07:42:22.756Z,14.07
2019-05-22T07:43:22.735Z,14.03
2019-05-22T07:44:22.694Z,14.06
2019-05-22T07:45:22.623Z,14.02
2019-05-22T07:46:22.580Z,13.91
2019-05-22T07:47:22.567Z,14.02
2019-05-22T07:48:22.508Z,14.12
2019-05-22T07:49:22.489Z,14.15
2019-05-22T07:50:22.427Z,14.06
2019-05-22T07:51:22.402Z,14.18
2019-05-22T07:52:22.350Z,14.07
2019-05-22T07:53:22.311Z,14.17
2019-05-22T07:54:22.295Z,14.18
2019-05-22T07:55:22.259Z,14.09
2019-05-22T07:56:22.195Z,14.06
2019-05-22T07:57:22.149Z,14.03
2019-05-22T07:58:22.109Z,14.09
2019-05-22T07:59:22.088Z,14.04
2019-05-22T08:00:22.074Z,14.12
2019-05-22T08:01:21.999Z,14.10
2019-05-22T08:02:21.958Z,14.02
2019-05-22T08:03:21.913Z,13.95
2019-05-22T08:04:21.904Z,13.96
2019-05-22T08:05:21.841Z,14.07
2019-05-22T08:06:21.802Z,14.10
2019-05-22T08:07:21.762Z,14.03
2019-05-22T08:08:21.726Z,14.03
2019-05-22T08:09:21.679Z,14.02
2019-05-22T08:10:21.671Z,14.07
2019-05-22T08:11:21.599Z,14.00
2019-05-22T08:12:21.557Z,14.04
2019-05-22T08:13:21.529Z,14.20
2019-05-22T08:14:21.561Z,14.28
2019-05-22T08:15:21.475Z,14.32
2019-05-22T08:16:21.443Z,14.35
2019-05-22T08:17:21.371Z,14.40
2019-05-22T08:18:21.332Z,14.39
2019-05-22T08:19:21.306Z,14.42
2019-05-22T08:20:21.266Z,14.42
2019-05-22T08:21:23.330Z,14.35
2019-05-22T08:22:21.190Z,14.61
2019-05-22T08:23:21.130Z,14.47
2019-05-22T08:24:21.124Z,14.73
2019-05-22T08:25:21.058Z,14.95
2019-05-22T08:26:21.046Z,14.94
2019-05-22T08:27:20.993Z,15.03
2019-05-22T08:28:20.948Z,14.92
2019-05-22T08:29:20.897Z,15.07
2019-05-22T08:30:20.861Z,15.23
2019-05-22T08:31:21.199Z,15.11
2019-05-22T08:32:20.791Z,15.23
2019-05-22T08:33:20.764Z,15.07
2019-05-22T08:34:20.712Z,15.23
2019-05-22T08:35:20.681Z,15.17
2019-05-22T08:36:20.683Z,15.20
2019-05-22T08:37:20.625Z,15.09
2019-05-22T08:38:20.561Z,15.16
2019-05-22T08:39:20.523Z,15.28
2019-05-22T08:40:20.485Z,15.36
2019-05-22T08:41:20.442Z,15.35
2019-05-22T08:42:20.424Z,15.23
2019-05-22T08:43:20.374Z,15.43
2019-05-22T08:44:20.332Z,15.50
2019-05-22T08:45:20.295Z,15.60
2019-05-22T08:46:20.265Z,15.75
2019-05-22T08:47:20.236Z,15.93
2019-05-22T08:48:20.206Z,15.90
2019-05-22T08:49:20.151Z,16.04
2019-05-22T08:50:20.109Z,16.09
2019-05-22T08:51:20.067Z,16.05
2019-05-22T08:52:23.484Z,16.39
2019-05-22T08:53:20.018Z,16.39
2019-05-22T08:54:19.981Z,16.60
2019-05-22T08:55:19.922Z,16.66
2019-05-22T08:56:19.899Z,16.67
2019-05-22T08:57:19.839Z,16.57
2019-05-22T08:58:19.803Z,16.53
2019-05-22T08:59:20.326Z,16.60
2019-05-22T09:00:19.730Z,16.66
2019-05-22T09:01:19.699Z,16.46
2019-05-22T09:02:19.685Z,16.64
2019-05-22T09:03:19.627Z,16.66
2019-05-22T09:04:19.598Z,16.60
2019-05-22T09:05:21.667Z,16.38
2019-05-22T09:06:19.514Z,16.46
2019-05-22T09:07:19.582Z,16.42
2019-05-22T09:08:19.455Z,16.24
2019-05-22T09:09:19.430Z,16.38
2019-05-22T09:10:19.370Z,16.52
2019-05-22T09:11:19.330Z,16.48
2019-05-22T09:12:19.291Z,16.42
2019-05-22T09:13:19.297Z,16.43
2019-05-22T09:14:19.251Z,16.38
2019-05-22T09:15:19.215Z,16.31
2019-05-22T09:16:19.191Z,17.28
2019-05-22T09:17:19.109Z,17.43
2019-05-22T09:18:19.067Z,17.38
2019-05-22T09:19:19.031Z,17.31
2019-05-22T09:20:18.996Z,17.59
2019-05-22T09:21:18.988Z,17.48
2019-05-22T09:22:18.928Z,17.78
2019-05-22T09:23:18.887Z,17.59
2019-05-22T09:24:18.877Z,17.46
2019-05-22T09:25:18.821Z,17.77
2019-05-22T09:26:18.796Z,18.63
2019-05-22T09:27:18.810Z,18.90
2019-05-22T09:28:18.717Z,18.47
2019-05-22T09:29:18.671Z,18.03
2019-05-22T09:30:18.644Z,17.96
2019-05-22T09:31:18.627Z,17.66
2019-05-22T09:32:18.592Z,18.35
2019-05-22T09:33:18.541Z,18.69
2019-05-22T09:34:18.536Z,18.51
2019-05-22T09:35:18.491Z,18.32
2019-05-22T09:36:18.450Z,18.35
2019-05-22T09:37:18.401Z,18.07
2019-05-22T09:38:18.362Z,18.12
2019-05-22T09:39:18.400Z,17.96
2019-05-22T09:40:18.323Z,17.89
2019-05-22T09:41:18.260Z,18.02
2019-05-22T09:42:18.231Z,18.47
2019-05-22T09:43:18.198Z,18.92
2019-05-22T09:44:18.166Z,19.18
2019-05-22T09:45:27.039Z,19.50
2019-05-22T09:46:18.100Z,19.44
2019-05-22T09:47:18.083Z,19.16
2019-05-22T09:48:18.019Z,19.26
2019-05-22T09:49:17.987Z,19.76
2019-05-22T09:50:17.950Z,20.48
2019-05-22T09:51:17.930Z,20.91
2019-05-22T09:52:17.918Z,20.77
2019-05-22T09:53:17.848Z,20.57
2019-05-22T09:54:17.834Z,20.72
2019-05-22T09:55:17.792Z,20.73
2019-05-22T09:56:17.758Z,20.69
2019-05-22T09:57:17.727Z,20.41
2019-05-22T09:58:17.716Z,20.42
2019-05-22T09:59:17.651Z,20.36
2019-05-22T10:00:17.622Z,20.06
2019-05-22T10:01:17.589Z,19.54
2019-05-22T10:02:17.562Z,19.43
2019-05-22T10:03:17.565Z,19.21
2019-05-22T10:04:17.501Z,19.28
2019-05-22T10:05:17.468Z,19.23
2019-05-22T10:06:17.435Z,19.56
2019-05-22T10:07:17.400Z,19.76
2019-05-22T10:08:17.365Z,20.55
2019-05-22T10:09:17.362Z,20.39
2019-05-22T10:10:17.309Z,20.73
2019-05-22T10:11:17.270Z,21.32
2019-05-22T10:12:17.240Z,21.74
2019-05-22T10:13:17.210Z,21.96
2019-05-22T10:14:17.198Z,21.67
2019-05-22T10:15:17.170Z,21.01
2019-05-22T10:16:17.137Z,20.28
2019-05-22T10:17:17.098Z,19.83
2019-05-22T10:18:17.069Z,19.58
2019-05-22T10:19:17.041Z,19.66
2019-05-22T10:20:16.984Z,19.44
2019-05-22T10:21:16.951Z,19.76
2019-05-22T10:22:16.927Z,20.47
2019-05-22T10:23:16.890Z,21.16
2019-05-22T10:24:16.883Z,21.19
2019-05-22T10:25:17.295Z,20.97
2019-05-22T10:26:16.816Z,20.23
2019-05-22T10:27:16.764Z,19.77
2019-05-22T10:28:16.733Z,19.43
2019-05-22T10:29:16.712Z,19.31
2019-05-22T10:30:16.714Z,19.78
2019-05-22T10:31:17.902Z,20.08
2019-05-22T10:32:16.603Z,20.26
2019-05-22T10:33:16.566Z,20.72
2019-05-22T10:34:16.546Z,21.17
2019-05-22T10:35:16.516Z,21.47
2019-05-22T10:36:16.525Z,21.91
2019-05-22T10:37:16.472Z,22.22
2019-05-22T10:38:16.450Z,22.47
2019-05-22T10:39:16.385Z,22.60
2019-05-22T10:40:16.351Z,22.42
2019-05-22T10:41:16.328Z,22.10
2019-05-22T10:42:16.326Z,21.58
2019-05-22T10:43:16.655Z,20.97
2019-05-22T10:44:16.226Z,20.74
2019-05-22T10:45:16.197Z,20.73
2019-05-22T10:46:16.168Z,20.73
2019-05-22T10:47:18.687Z,20.87
2019-05-22T10:48:16.135Z,21.16
2019-05-22T10:49:16.079Z,21.52
2019-05-22T10:50:16.050Z,21.44
2019-05-22T10:51:16.015Z,21.22
2019-05-22T10:52:15.984Z,21.37
2019-05-22T10:53:32.354Z,21.22
2019-05-22T10:54:15.916Z,20.55
2019-05-22T10:55:15.900Z,20.70
2019-05-22T10:56:15.870Z,20.98
2019-05-22T10:57:15.826Z,20.59
2019-05-22T10:58:15.802Z,20.29
2019-05-22T10:59:15.810Z,19.66
2019-05-22T11:00:15.744Z,19.68
2019-05-22T11:01:15.716Z,19.51
2019-05-22T11:02:15.679Z,20.01
2019-05-22T11:03:15.640Z,20.57
2019-05-22T11:04:19.111Z,20.92
2019-05-22T11:05:15.576Z,21.21
2019-05-22T11:06:15.545Z,21.31
2019-05-22T11:07:15.531Z,20.72
2019-05-22T11:08:15.510Z,20.58
2019-05-22T11:09:15.487Z,20.16
2019-05-22T11:10:15.435Z,20.31
2019-05-22T11:11:15.480Z,20.58
2019-05-22T11:12:15.363Z,20.74
2019-05-22T11:13:15.330Z,21.16
2019-05-22T11:14:15.307Z,21.74
2019-05-22T11:15:15.292Z,21.96
2019-05-22T11:16:15.239Z,21.49
2019-05-22T11:17:15.200Z,20.94
2019-05-22T11:18:15.169Z,20.72
2019-05-22T11:19:15.146Z,20.74
2019-05-22T11:20:15.116Z,20.62
2019-05-22T11:21:15.113Z,20.94
2019-05-22T11:22:15.055Z,21.22
2019-05-22T11:23:15.029Z,20.94
2019-05-22T11:24:14.984Z,20.99
2019-05-22T11:25:14.956Z,20.94
2019-05-22T11:26:14.987Z,21.09
2019-05-22T11:27:14.902Z,21.06
2019-05-22T11:28:14.903Z,21.21
2019-05-22T11:29:14.975Z,21.34
2019-05-22T11:30:14.803Z,21.32
2019-05-22T11:31:14.781Z,21.84
2019-05-22T11:32:14.775Z,22.02
2019-05-22T11:33:14.723Z,21.71
2019-05-22T11:34:14.775Z,21.50
2019-05-22T11:35:15.492Z,21.59
2019-05-22T11:36:14.629Z,21.22
2019-05-22T11:37:14.599Z,21.64
2019-05-22T11:38:14.592Z,21.61
2019-05-22T11:39:14.546Z,21.68
2019-05-22T11:40:14.525Z,21.88
2019-05-22T11:41:14.488Z,21.88
2019-05-22T11:42:14.458Z,21.72
2019-05-22T11:43:14.422Z,21.83
2019-05-22T11:44:14.418Z,22.20
2019-05-22T11:45:14.369Z,21.96
2019-05-22T11:46:14.336Z,21.83
2019-05-22T11:47:14.307Z,21.65
2019-05-22T11:48:14.274Z,21.79
2019-05-22T11:49:14.276Z,21.99
2019-05-22T11:50:14.232Z,21.58
2019-05-22T11:51:14.210Z,21.35
2019-05-22T11:52:14.165Z,21.27
2019-05-22T11:53:14.136Z,21.69
2019-05-22T11:54:14.104Z,21.98
2019-05-22T11:55:14.096Z,21.94
2019-05-22T11:56:14.054Z,22.15
2019-05-22T11:57:14.003Z,22.47
2019-05-22T11:58:13.981Z,22.49
2019-05-22T11:59:13.963Z,22.22
2019-05-22T12:00:13.927Z,21.82
2019-05-22T12:01:13.913Z,21.46
2019-05-22T12:02:13.855Z,21.74
2019-05-22T12:03:13.838Z,21.83
2019-05-22T12:04:13.808Z,21.80
2019-05-22T12:05:13.774Z,22.07
2019-05-22T12:06:13.778Z,22.36
2019-05-22T12:07:14.563Z,21.86
2019-05-22T12:08:13.684Z,21.74
2019-05-22T12:09:13.654Z,21.49
2019-05-22T12:10:13.624Z,21.58
2019-05-22T12:11:13.628Z,21.47
2019-05-22T12:12:13.575Z,21.12
2019-05-22T12:13:13.544Z,20.61
2019-05-22T12:14:13.518Z,20.38
2019-05-22T12:15:13.470Z,20.29
2019-05-22T12:16:13.439Z,20.58
2019-05-22T12:17:13.444Z,20.59
2019-05-22T12:18:13.391Z,20.48
2019-05-22T12:19:13.348Z,20.21
2019-05-22T12:20:13.316Z,20.31
2019-05-22T12:21:13.369Z,20.28
2019-05-22T12:22:13.275Z,20.21
2019-05-22T12:23:13.231Z,20.41
2019-05-22T12:24:26.303Z,20.74
2019-05-22T12:25:13.161Z,20.70
2019-05-22T12:26:13.129Z,20.57
2019-05-22T12:27:13.095Z,20.38
2019-05-22T12:28:13.096Z,19.98
2019-05-22T12:29:16.769Z,19.86
2019-05-22T12:30:12.996Z,19.73
2019-05-22T12:31:12.972Z,19.80
2019-05-22T12:32:12.977Z,19.73
2019-05-22T12:33:14.289Z,19.92
2019-05-22T12:34:12.870Z,20.03
2019-05-22T12:35:12.840Z,19.87
2019-05-22T12:36:12.809Z,19.81
2019-05-22T12:37:12.773Z,20.02
2019-05-22T12:38:12.765Z,20.32
2019-05-22T12:39:12.731Z,20.58
2019-05-22T12:40:12.689Z,20.61
2019-05-22T12:41:12.636Z,20.54
2019-05-22T12:42:12.627Z,20.52
2019-05-22T12:43:12.575Z,20.70
2019-05-22T12:44:12.594Z,20.92
2019-05-22T12:45:12.544Z,20.97
2019-05-22T12:46:12.481Z,20.52
2019-05-22T12:47:12.440Z,19.94
2019-05-22T12:48:12.413Z,20.03
2019-05-22T12:49:12.414Z,20.29
2019-05-22T12:50:12.380Z,20.31
2019-05-22T12:51:12.311Z,20.43
2019-05-22T12:52:12.286Z,20.59
2019-05-22T12:53:12.247Z,20.47